createdAt,value
2018-12-20T00:00:44.642Z,4.35
2018-12-20T00:03:48.169Z,4.67
2018-12-20T00:06:51.501Z,4.62
2018-12-20T00:09:56.866Z,5.15
2018-12-20T00:13:00.484Z,4.78
2018-12-20T00:16:05.055Z,4.30
2018-12-20T00:19:08.244Z,5.12
2018-12-20T00:22:11.833Z,5.03
2018-12-20T00:25:15.380Z,4.90
2018-12-20T00:28:18.770Z,5.00
2018-12-20T00:31:22.522Z,5.28
2018-12-20T00:34:25.768Z,4.47
2018-12-20T00:37:28.871Z,4.62
2018-12-20T00:40:33.267Z,4.40
2018-12-20T00:43:36.572Z,4.72
2018-12-20T00:46:39.740Z,5.40
2018-12-20T00:49:42.867Z,4.80
2018-12-20T00:52:45.886Z,4.22
2018-12-20T00:55:49.290Z,4.83
2018-12-20T00:58:52.724Z,5.05
2018-12-20T01:01:55.857Z,4.62
2018-12-20T01:04:59.027Z,5.35
2018-12-20T01:08:02.332Z,4.53
2018-12-20T01:11:05.639Z,5.37
2018-12-20T01:14:08.672Z,5.20
2018-12-20T01:17:11.660Z,4.70
2018-12-20T01:20:14.975Z,5.37
2018-12-20T01:23:18.250Z,5.12
2018-12-20T01:26:21.355Z,4.50
2018-12-20T01:29:24.673Z,4.92
2018-12-20T01:32:27.724Z,5.10
2018-12-20T01:35:30.900Z,4.53
2018-12-20T01:38:34.056Z,5.10
2018-12-20T01:41:37.370Z,4.85
2018-12-20T01:44:40.620Z,5.20
2018-12-20T01:47:43.897Z,4.92
2018-12-20T01:50:48.129Z,4.87
2018-12-20T01:53:51.232Z,4.85
2018-12-20T01:56:54.359Z,5.50
2018-12-20T01:59:57.381Z,5.10
2018-12-20T02:03:01.631Z,5.10
2018-12-20T02:06:04.970Z,4.67
2018-12-20T02:09:09.270Z,5.33
2018-12-20T02:12:13.335Z,5.30
2018-12-20T02:15:16.370Z,4.85
2018-12-20T02:18:19.696Z,5.42
2018-12-20T02:21:22.814Z,4.97
2018-12-20T02:24:26.214Z,4.85
2018-12-20T02:27:29.449Z,5.00
2018-12-20T02:30:35.222Z,5.08
2018-12-20T02:33:38.357Z,5.53
2018-12-20T02:36:41.458Z,5.65
2018-12-20T02:39:45.662Z,4.90
2018-12-20T02:42:48.935Z,4.97
2018-12-20T02:45:52.189Z,5.30
2018-12-20T02:48:55.423Z,5.10
2018-12-20T02:51:59.732Z,5.00
2018-12-20T02:55:02.858Z,4.90
2018-12-20T02:58:05.987Z,4.80
2018-12-20T03:01:09.356Z,5.00
2018-12-20T03:04:13.575Z,5.42
2018-12-20T03:07:16.744Z,4.67
2018-12-20T03:10:19.974Z,5.47
2018-12-20T03:13:23.039Z,5.20
2018-12-20T03:16:26.079Z,5.05
2018-12-20T03:19:29.542Z,5.03
2018-12-20T03:22:32.751Z,5.58
2018-12-20T03:25:35.916Z,4.80
2018-12-20T03:28:39.373Z,4.97
2018-12-20T03:31:42.501Z,5.47
2018-12-20T03:34:45.491Z,4.80
2018-12-20T03:37:48.897Z,4.70
2018-12-20T03:40:52.163Z,5.15
2018-12-20T03:43:56.658Z,4.55
2018-12-20T03:47:00.734Z,5.30
2018-12-20T03:50:04.163Z,5.10
2018-12-20T03:53:07.686Z,4.70
2018-12-20T03:56:10.890Z,4.78
2018-12-20T03:59:13.900Z,5.15
2018-12-20T04:02:16.980Z,4.95
2018-12-20T04:05:20.472Z,5.28
2018-12-20T04:08:23.772Z,4.55
2018-12-20T04:11:27.969Z,5.62
2018-12-20T04:14:31.552Z,4.90
2018-12-20T04:17:34.808Z,5.17
2018-12-20T04:20:37.884Z,5.58
2018-12-20T04:23:40.930Z,5.20
2018-12-20T04:26:44.139Z,4.90
2018-12-20T04:29:47.629Z,5.30
2018-12-20T04:32:50.788Z,4.75
2018-12-20T04:35:55.112Z,5.25
2018-12-20T04:38:58.338Z,5.05
2018-12-20T04:42:01.703Z,5.25
2018-12-20T04:45:05.603Z,5.15
2018-12-20T04:48:09.691Z,5.25
2018-12-20T04:51:12.710Z,4.92
2018-12-20T04:54:15.895Z,4.90
2018-12-20T04:57:18.983Z,4.87
2018-12-20T05:00:22.089Z,5.28
2018-12-20T05:03:25.568Z,5.30
2018-12-20T05:06:29.074Z,4.53
2018-12-20T05:09:32.185Z,5.33
2018-12-20T05:12:35.456Z,4.87
2018-12-20T05:15:38.511Z,4.95
2018-12-20T05:18:41.737Z,4.97
2018-12-20T05:21:44.906Z,4.83
2018-12-20T05:24:47.984Z,4.85
2018-12-20T05:27:51.030Z,5.47
2018-12-20T05:30:54.486Z,4.62
2018-12-20T05:33:57.661Z,4.78
2018-12-20T05:37:00.902Z,5.00
2018-12-20T05:40:04.585Z,5.10
2018-12-20T05:43:07.848Z,5.33
2018-12-20T05:46:13.099Z,5.10
2018-12-20T05:49:16.355Z,4.65
2018-12-20T05:52:19.519Z,5.30
2018-12-20T05:55:22.832Z,5.03
2018-12-20T05:58:26.252Z,4.83
2018-12-20T06:01:29.474Z,4.90
2018-12-20T06:04:32.631Z,5.28
2018-12-20T06:07:36.194Z,4.92
2018-12-20T06:10:39.320Z,4.80
2018-12-20T06:13:42.425Z,5.45
2018-12-20T06:16:46.758Z,4.90
2018-12-20T06:19:49.843Z,5.12
2018-12-20T06:22:52.915Z,4.50
2018-12-20T06:25:56.112Z,4.60
2018-12-20T06:29:00.239Z,4.90
2018-12-20T06:32:03.223Z,4.87
2018-12-20T06:35:06.200Z,5.47
2018-12-20T06:38:09.201Z,4.97
2018-12-20T06:41:12.234Z,4.62
2018-12-20T06:44:15.480Z,5.37
2018-12-20T06:47:18.464Z,4.87
2018-12-20T06:50:21.467Z,4.87
2018-12-20T06:53:25.645Z,5.28
2018-12-20T06:56:28.660Z,5.15
2018-12-20T06:59:31.831Z,4.70
2018-12-20T07:02:35.063Z,4.90
2018-12-20T07:05:38.139Z,4.40
2018-12-20T07:08:41.147Z,4.90
2018-12-20T07:11:44.323Z,4.50
2018-12-20T07:14:48.436Z,5.05
2018-12-20T07:17:51.435Z,4.97
2018-12-20T07:20:54.479Z,5.12
2018-12-20T07:23:57.811Z,4.60
2018-12-20T07:27:00.903Z,4.72
2018-12-20T07:30:04.795Z,5.15
2018-12-20T07:33:08.268Z,5.12
2018-12-20T07:36:11.743Z,4.85
2018-12-20T07:39:14.995Z,5.40
2018-12-20T07:42:18.306Z,5.42
2018-12-20T07:45:22.439Z,5.30
2018-12-20T07:48:32.049Z,4.62
2018-12-20T07:51:31.900Z,5.00
2018-12-20T07:54:36.892Z,4.53
2018-12-20T07:57:40.120Z,5.37
2018-12-20T08:00:43.174Z,4.80
2018-12-20T08:03:46.213Z,4.50
2018-12-20T08:06:49.324Z,5.10
2018-12-20T08:09:52.484Z,4.60
2018-12-20T08:12:55.474Z,5.35
2018-12-20T08:15:58.478Z,5.25
2018-12-20T08:19:01.455Z,5.50
2018-12-20T08:22:05.586Z,5.12
2018-12-20T08:25:08.797Z,4.83
2018-12-20T08:28:12.902Z,4.80
2018-12-20T08:31:16.050Z,5.00
2018-12-20T08:34:20.188Z,4.25
2018-12-20T08:37:23.403Z,4.65
2018-12-20T08:40:27.664Z,4.80
2018-12-20T08:43:30.691Z,5.20
2018-12-20T08:46:33.767Z,5.20
2018-12-20T08:49:36.886Z,4.62
2018-12-20T08:52:40.124Z,10.85
2018-12-20T08:55:43.363Z,4.58
2018-12-20T08:58:46.377Z,5.85
2018-12-20T09:01:50.645Z,5.47
2018-12-20T09:04:54.794Z,4.42
2018-12-20T09:07:57.884Z,5.80
2018-12-20T09:11:01.170Z,5.08
2018-12-20T09:14:04.267Z,4.78
2018-12-20T09:17:07.268Z,4.72
2018-12-20T09:20:11.317Z,4.55
2018-12-20T09:23:14.455Z,4.33
2018-12-20T09:26:17.434Z,4.30
2018-12-20T09:29:22.425Z,6.60
2018-12-20T09:32:25.583Z,4.80
2018-12-20T09:35:28.663Z,5.55
2018-12-20T09:38:31.681Z,4.45
2018-12-20T09:41:34.743Z,5.08
2018-12-20T09:44:39.067Z,4.12
2018-12-20T09:47:47.367Z,4.58
2018-12-20T09:50:50.470Z,4.10
2018-12-20T09:53:53.632Z,4.72
2018-12-20T09:56:56.772Z,4.00
2018-12-20T09:59:59.970Z,4.62
2018-12-20T10:03:02.959Z,5.33
2018-12-20T10:06:06.164Z,4.15
2018-12-20T10:09:09.501Z,3.65
2018-12-20T10:12:12.807Z,4.70
2018-12-20T10:15:16.745Z,4.42
2018-12-20T10:18:19.839Z,3.90
2018-12-20T10:21:24.132Z,4.62
2018-12-20T10:24:27.268Z,4.60
2018-12-20T10:27:31.807Z,4.28
2018-12-20T10:30:34.876Z,4.75
2018-12-20T10:33:37.999Z,4.12
2018-12-20T10:36:42.233Z,4.12
2018-12-20T10:39:46.211Z,7.65
2018-12-20T10:42:49.329Z,4.37
2018-12-20T10:45:52.459Z,5.70
2018-12-20T10:48:55.557Z,4.00
2018-12-20T10:51:59.678Z,4.60
2018-12-20T10:55:02.681Z,4.85
2018-12-20T10:58:05.748Z,4.40
2018-12-20T11:01:15.396Z,4.30
2018-12-20T11:04:23.950Z,4.65
2018-12-20T11:07:32.466Z,5.20
2018-12-20T11:10:35.458Z,4.95
2018-12-20T11:13:38.620Z,4.78
2018-12-20T11:16:41.637Z,4.58
2018-12-20T11:19:44.716Z,4.12
2018-12-20T11:22:47.846Z,5.42
2018-12-20T11:25:51.056Z,4.45
2018-12-20T11:28:54.203Z,4.45
2018-12-20T11:31:57.290Z,3.90
2018-12-20T11:35:00.408Z,4.62
2018-12-20T11:38:03.571Z,4.00
2018-12-20T11:41:06.663Z,3.72
2018-12-20T11:44:09.676Z,4.17
2018-12-20T11:47:18.213Z,4.28
2018-12-20T11:50:21.522Z,3.80
2018-12-20T11:53:25.031Z,3.90
2018-12-20T11:56:28.191Z,4.25
2018-12-20T11:59:31.347Z,4.28
2018-12-20T12:02:34.510Z,3.90
2018-12-20T12:05:38.587Z,3.77
2018-12-20T12:08:41.571Z,3.77
2018-12-20T12:11:44.628Z,3.87
2018-12-20T12:14:48.942Z,4.10
2018-12-20T12:17:54.412Z,3.80
2018-12-20T12:20:56.986Z,4.10
2018-12-20T12:24:00.262Z,4.55
2018-12-20T12:27:03.392Z,6.45
2018-12-20T12:30:08.172Z,4.00
2018-12-20T12:33:11.326Z,4.28
2018-12-20T12:36:16.431Z,5.25
2018-12-20T12:39:19.555Z,4.03
2018-12-20T12:42:22.532Z,4.15
2018-12-20T12:45:26.675Z,3.70
2018-12-20T12:48:30.778Z,4.58
2018-12-20T12:51:34.957Z,7.40
2018-12-20T12:54:38.052Z,4.95
2018-12-20T12:57:41.185Z,5.60
2018-12-20T13:00:44.356Z,4.05
2018-12-20T13:03:47.443Z,7.05
2018-12-20T13:06:50.669Z,3.95
2018-12-20T13:09:53.942Z,5.58
2018-12-20T13:12:56.920Z,4.72
2018-12-20T13:16:00.202Z,4.42
2018-12-20T13:19:03.455Z,4.25
2018-12-20T13:22:06.621Z,4.80
2018-12-20T13:25:09.799Z,4.65
2018-12-20T13:28:12.812Z,4.80
2018-12-20T13:31:15.918Z,4.62
2018-12-20T13:34:19.131Z,4.53
2018-12-20T13:37:22.324Z,5.00
2018-12-20T13:40:25.367Z,4.67
2018-12-20T13:46:42.635Z,5.25
2018-12-20T13:49:45.872Z,4.95
2018-12-20T13:52:49.076Z,4.33
2018-12-20T13:55:52.394Z,4.95
2018-12-20T13:59:03.258Z,11.80
2018-12-20T14:02:01.690Z,10.95
2018-12-20T14:05:05.294Z,9.60
2018-12-20T14:08:08.380Z,9.00
2018-12-20T14:11:12.463Z,14.07
2018-12-20T14:14:15.696Z,15.83
2018-12-20T14:17:19.681Z,9.78
2018-12-20T14:20:22.747Z,13.05
2018-12-20T14:23:26.015Z,5.85
2018-12-20T14:26:29.299Z,7.83
2018-12-20T14:29:33.587Z,10.28
2018-12-20T14:32:36.819Z,5.58
2018-12-20T14:35:39.840Z,7.45
2018-12-20T14:38:42.950Z,6.67
2018-12-20T14:41:46.195Z,5.30
2018-12-20T14:44:49.318Z,5.67
2018-12-20T14:47:52.408Z,5.72
2018-12-20T14:50:55.499Z,6.10
2018-12-20T14:53:58.692Z,5.15
2018-12-20T14:57:02.330Z,6.60
2018-12-20T15:00:08.609Z,10.43
2018-12-20T15:03:13.723Z,8.33
2018-12-20T15:06:16.716Z,9.50
2018-12-20T15:09:19.808Z,6.67
2018-12-20T15:12:23.047Z,7.65
2018-12-20T15:15:26.174Z,10.23
2018-12-20T15:18:29.727Z,7.72
2018-12-20T15:21:32.968Z,8.53
2018-12-20T15:24:36.857Z,6.42
2018-12-20T15:27:42.037Z,11.12
2018-12-20T15:30:45.958Z,7.25
2018-12-20T15:33:51.584Z,6.65
2018-12-20T15:36:56.670Z,6.65
2018-12-20T15:39:59.736Z,5.45
2018-12-20T15:43:02.923Z,9.85
2018-12-20T15:46:05.935Z,6.92
2018-12-20T15:49:09.142Z,6.55
2018-12-20T15:52:12.467Z,5.80
2018-12-20T15:55:16.721Z,5.12
2018-12-20T15:58:20.740Z,5.55
2018-12-20T16:01:24.858Z,5.25
2018-12-20T16:04:29.652Z,6.55
2018-12-20T16:07:34.095Z,5.08
2018-12-20T16:10:37.580Z,8.35
2018-12-20T16:13:43.783Z,6.22
2018-12-20T16:16:46.988Z,5.05
2018-12-20T16:19:50.143Z,6.12
2018-12-20T16:22:53.579Z,4.92
2018-12-20T16:25:57.790Z,5.60
2018-12-20T16:29:00.946Z,4.90
2018-12-20T16:32:04.115Z,4.95
2018-12-20T16:35:08.111Z,6.85
2018-12-20T16:38:11.335Z,6.07
2018-12-20T16:41:14.615Z,8.30
2018-12-20T16:44:17.897Z,5.75
2018-12-20T16:47:21.170Z,5.35
2018-12-20T16:50:25.522Z,8.43
2018-12-20T16:53:28.782Z,6.67
2018-12-20T16:56:31.792Z,6.92
2018-12-20T16:59:34.868Z,4.47
2018-12-20T17:02:38.009Z,8.00
2018-12-20T17:05:41.058Z,8.45
2018-12-20T17:08:48.050Z,4.60
2018-12-20T17:11:49.368Z,4.87
2018-12-20T17:14:52.569Z,5.67
2018-12-20T17:17:55.664Z,5.25
2018-12-20T17:20:59.919Z,5.20
2018-12-20T17:24:03.087Z,4.37
2018-12-20T17:27:10.203Z,5.55
2018-12-20T17:30:13.535Z,4.92
2018-12-20T17:33:16.756Z,5.33
2018-12-20T17:36:20.051Z,5.55
2018-12-20T17:39:23.024Z,5.28
2018-12-20T17:42:26.120Z,5.12
2018-12-20T17:45:29.179Z,5.30
2018-12-20T17:48:32.311Z,4.87
2018-12-20T17:51:35.561Z,5.15
2018-12-20T17:54:38.795Z,5.22
2018-12-20T17:57:42.900Z,5.10
2018-12-20T18:00:45.984Z,7.22
2018-12-20T18:03:49.083Z,4.83
2018-12-20T18:06:52.098Z,5.05
2018-12-20T18:09:55.201Z,5.12
2018-12-20T18:12:58.600Z,5.12
2018-12-20T18:16:01.993Z,7.22
2018-12-20T18:19:05.130Z,6.15
2018-12-20T18:22:08.855Z,5.10
2018-12-20T18:25:14.919Z,4.83
2018-12-20T18:28:22.975Z,6.95
2018-12-20T18:31:29.323Z,5.65
2018-12-20T18:34:35.714Z,5.30
2018-12-20T18:37:42.191Z,5.40
2018-12-20T18:40:48.379Z,5.67
2018-12-20T18:43:54.680Z,7.53
2018-12-20T18:46:59.395Z,5.10
2018-12-20T18:50:02.431Z,5.15
2018-12-20T18:53:05.635Z,5.05
2018-12-20T18:56:08.902Z,4.85
2018-12-20T18:59:11.889Z,4.97
2018-12-20T19:02:15.087Z,4.75
2018-12-20T19:05:18.279Z,5.03
2018-12-20T19:08:21.387Z,4.60
2018-12-20T19:11:24.459Z,4.92
2018-12-20T19:14:27.607Z,5.12
2018-12-20T19:17:30.756Z,5.08
2018-12-20T19:20:34.917Z,4.70
2018-12-20T19:23:37.966Z,4.70
2018-12-20T19:26:41.145Z,5.37
2018-12-20T19:29:44.459Z,5.08
2018-12-20T19:32:47.815Z,4.83
2018-12-20T19:35:51.121Z,4.78
2018-12-20T19:38:56.191Z,4.83
2018-12-20T19:42:09.163Z,4.65
2018-12-20T19:45:15.404Z,5.15
2018-12-20T19:48:21.494Z,4.78
2018-12-20T19:51:28.155Z,5.08
2018-12-20T19:54:34.541Z,4.92
2018-12-20T19:57:41.315Z,5.00
2018-12-20T20:00:47.687Z,5.20
2018-12-20T20:03:54.183Z,5.30
2018-12-20T20:07:00.186Z,5.00
2018-12-20T20:10:06.710Z,4.62
2018-12-20T20:13:19.247Z,5.55
2018-12-20T20:16:21.434Z,5.03
2018-12-20T20:19:27.891Z,4.65
2018-12-20T20:22:34.314Z,4.70
2018-12-20T20:25:40.688Z,4.67
2018-12-20T20:28:46.891Z,4.58
2018-12-20T20:31:50.203Z,4.70
2018-12-20T20:34:53.352Z,5.20
2018-12-20T20:37:56.465Z,5.40
2018-12-20T20:40:59.531Z,4.90
2018-12-20T20:44:02.623Z,4.72
2018-12-20T20:47:06.667Z,6.10
2018-12-20T20:50:10.759Z,4.78
2018-12-20T20:53:13.855Z,4.67
2018-12-20T20:56:16.950Z,4.78
2018-12-20T20:59:21.183Z,4.60
2018-12-20T21:02:24.217Z,4.35
2018-12-20T21:05:27.343Z,5.25
2018-12-20T21:08:30.343Z,5.03
2018-12-20T21:11:33.524Z,5.22
2018-12-20T21:14:36.515Z,4.53
2018-12-20T21:17:39.617Z,4.67
2018-12-20T21:20:42.703Z,4.80
2018-12-20T21:23:45.783Z,4.70
2018-12-20T21:26:48.885Z,4.83
2018-12-20T21:29:51.987Z,4.50
2018-12-20T21:32:55.192Z,4.30
2018-12-20T21:35:58.172Z,4.28
2018-12-20T21:39:01.371Z,5.00
2018-12-20T21:42:04.361Z,4.40
2018-12-20T21:45:08.740Z,4.50
2018-12-20T21:48:11.967Z,4.25
2018-12-20T21:51:15.055Z,4.10
2018-12-20T21:54:18.252Z,5.75
2018-12-20T21:57:21.673Z,4.47
2018-12-20T22:00:28.623Z,4.37
2018-12-20T22:03:31.722Z,4.20
2018-12-20T22:06:34.792Z,4.12
2018-12-20T22:09:37.895Z,3.70
2018-12-20T22:12:41.008Z,6.58
2018-12-20T22:15:44.176Z,3.55
2018-12-20T22:18:47.262Z,4.30
2018-12-20T22:21:50.227Z,4.17
2018-12-20T22:24:53.605Z,4.40
2018-12-20T22:27:56.867Z,4.42
2018-12-20T22:31:00.147Z,4.50
2018-12-20T22:34:03.255Z,3.45
2018-12-20T22:37:06.611Z,4.10
2018-12-20T22:40:09.855Z,4.03
2018-12-20T22:43:13.136Z,3.90
2018-12-20T22:46:16.583Z,4.33
2018-12-20T22:49:20.074Z,4.25
2018-12-20T22:52:23.293Z,3.95
2018-12-20T22:55:26.647Z,4.47
2018-12-20T22:58:29.762Z,3.77
2018-12-20T23:01:33.335Z,4.25
2018-12-20T23:04:36.613Z,3.87
2018-12-20T23:07:39.998Z,4.08
2018-12-20T23:10:43.353Z,4.00
2018-12-20T23:13:46.530Z,3.67
2018-12-20T23:16:53.693Z,4.15
2018-12-20T23:19:55.095Z,4.10
2018-12-20T23:22:58.213Z,3.58
2018-12-20T23:26:01.346Z,3.27
2018-12-20T23:29:04.772Z,4.28
2018-12-20T23:32:08.061Z,3.87
2018-12-20T23:35:11.167Z,3.55
2018-12-20T23:38:14.397Z,3.95
2018-12-20T23:41:17.571Z,3.75
2018-12-20T23:44:20.713Z,3.72
2018-12-20T23:47:23.890Z,3.85
2018-12-20T23:50:28.021Z,4.15
2018-12-20T23:53:32.207Z,3.62
2018-12-20T23:56:35.323Z,4.17
2018-12-20T23:59:38.698Z,3.80
